Bristol, Georgia
Current Conditions -  °F | °C
As of 11:15 PM on Monday 22 Dec 2014 (Local Time) from KAYS Reporting Station
Haze Haze  
Wind Chill: 14°   Ceiling: 200
Heat Index: 14°   Visibility: 4mi
Dew Point: 14°   Wind: 3mph
Humidity: 100%   Direction: 110°ESE
Pressure: 29.93"   Gusts: NA
Location:  31.45°N, 82.21°W
Report Text: KAYS 230415Z AUTO 11003KT 4SM BR OVC002 14/14 A2993 RMK AO2 T01410141
Loading
Personal Weather Stations






























Interactive Weather Map New forecast layout! Learn more

10-Day Weather Forecast

Advertisements
Track Severe Weather on mobile